Time,TemperatureF,DewpointF,PressureIn,WindDirection,WindDirectionDegrees,WindSpeedMPH,WindSpeedGustMPH,Humidity,HourlyPrecipIn,Conditions,Clouds,dailyrainin,SoftwareType,DateUTC
2013-01-09 00:00:00,32.4,25.4,29.88,West,268,8.0,16.0,75,0.00,,---,0.00,VWS V14.01,2013-01-09 07:00:00,
2013-01-09 00:30:00,31.2,24.2,29.89,NW,306,3.0,18.0,75,0.00,,---,0.00,VWS V14.01,2013-01-09 07:30:00,
2013-01-09 01:00:00,30.0,24.0,29.91,WNW,288,1.0,10.0,78,0.00,,---,0.00,VWS V14.01,2013-01-09 08:00:00,
2013-01-09 01:30:00,29.1,23.7,29.93,WNW,287,2.0,10.0,80,0.00,,---,0.00,VWS V14.01,2013-01-09 08:30:00,
2013-01-09 02:00:00,29.1,22.5,29.95,WNW,300,7.0,12.0,76,0.00,,---,0.00,VWS V14.01,2013-01-09 09:00:00,
2013-01-09 02:30:00,27.6,22.0,29.98,West,268,0.0,12.0,79,0.00,,---,0.00,VWS V14.01,2013-01-09 09:30:00,
2013-01-09 03:00:00,27.1,21.5,30.00,West,269,7.0,10.0,79,0.00,,---,0.00,VWS V14.01,2013-01-09 10:00:00,
2013-01-09 03:30:00,26.3,20.7,30.02,SW,219,10.0,10.0,79,0.00,,---,0.00,VWS V14.01,2013-01-09 10:30:00,
2013-01-09 04:00:00,25.5,20.2,30.03,WNW,293,2.0,10.0,80,0.00,,---,0.00,VWS V14.01,2013-01-09 11:00:00,
2013-01-09 04:30:00,25.0,19.7,30.07,WNW,292,1.0,11.0,80,0.00,,---,0.00,VWS V14.01,2013-01-09 11:30:00,
2013-01-09 05:01:00,24.5,19.2,30.09,WNW,285,1.0,11.0,80,0.00,,---,0.00,VWS V14.01,2013-01-09 12:01:00,
2013-01-09 05:31:00,24.3,19.0,30.11,West,261,1.0,10.0,80,0.00,,---,0.00,VWS V14.01,2013-01-09 12:31:00,
2013-01-09 06:01:00,23.9,18.6,30.12,West,259,0.0,9.0,80,0.00,,---,0.00,VWS V14.01,2013-01-09 13:01:00,
2013-01-09 06:31:00,23.5,18.2,30.15,West,277,0.0,7.0,80,0.00,,---,0.00,VWS V14.01,2013-01-09 13:31:00,
2013-01-09 07:01:00,23.2,18.0,30.17,WSW,256,5.0,7.0,80,0.00,,---,0.00,VWS V14.01,2013-01-09 14:01:00,
2013-01-09 07:31:00,23.1,17.9,30.18,WNW,284,4.0,8.0,80,0.00,,---,0.00,VWS V14.01,2013-01-09 14:31:00,
2013-01-09 08:01:00,23.0,17.8,30.20,WNW,290,3.0,6.0,80,0.00,,---,0.00,VWS V14.01,2013-01-09 15:01:00,
2013-01-09 08:31:00,23.7,18.1,30.22,WNW,292,0.0,5.0,79,0.00,,---,0.00,VWS V14.01,2013-01-09 15:31:00,
2013-01-09 09:01:00,24.2,18.3,30.22,WNW,291,1.0,6.0,78,0.00,,---,0.00,VWS V14.01,2013-01-09 16:01:00,
2013-01-09 09:31:00,25.0,18.5,30.23,NW,317,1.0,6.0,76,0.00,,---,0.00,VWS V14.01,2013-01-09 16:31:00,
2013-01-09 10:01:00,24.8,18.3,30.23,WNW,282,2.0,6.0,76,0.00,,---,0.00,VWS V14.01,2013-01-09 17:01:00,
2013-01-09 10:31:00,24.9,18.4,30.23,NW,305,0.0,6.0,76,0.00,,---,0.00,VWS V14.01,2013-01-09 17:31:00,
2013-01-09 11:01:00,26.0,19.2,30.23,WNW,285,0.0,5.0,75,0.00,,---,0.00,VWS V14.01,2013-01-09 18:01:00,
2013-01-09 11:31:00,26.2,19.4,30.22,WNW,293,3.0,7.0,75,0.00,,---,0.00,VWS V14.01,2013-01-09 18:31:00,
2013-01-09 12:01:00,27.7,20.2,30.23,West,262,1.0,6.0,73,0.00,,---,0.00,VWS V14.01,2013-01-09 19:01:00,
2013-01-09 12:31:00,28.9,20.0,30.24,West,279,1.0,3.0,69,0.00,,---,0.00,VWS V14.01,2013-01-09 19:31:00,
2013-01-09 13:01:00,30.1,19.8,30.25,SW,232,1.0,2.0,65,0.00,,---,0.00,VWS V14.01,2013-01-09 20:01:00,
2013-01-09 13:31:00,27.8,20.3,30.27,SSW,194,4.0,4.0,73,0.00,,---,0.00,VWS V14.01,2013-01-09 20:31:00,
2013-01-09 14:01:00,27.5,20.3,30.28,SSW,192,2.0,5.0,74,0.00,,---,0.00,VWS V14.01,2013-01-09 21:01:00,
2013-01-09 14:31:00,27.9,20.7,30.27,SW,221,1.0,7.0,74,0.00,,---,0.00,VWS V14.01,2013-01-09 21:31:00,
2013-01-09 15:01:00,28.0,20.8,30.27,SE,142,0.0,6.0,74,0.00,,---,0.00,VWS V14.01,2013-01-09 22:01:00,
2013-01-09 15:31:00,28.4,22.1,30.26,South,169,3.0,6.0,77,0.00,,---,0.00,VWS V14.01,2013-01-09 22:31:00,
2013-01-09 16:01:00,27.2,21.6,30.24,South,177,3.0,5.0,79,0.00,,---,0.00,VWS V14.01,2013-01-09 23:01:00,
2013-01-09 16:31:00,26.4,21.1,30.21,SSE,150,4.0,7.0,80,0.00,,---,0.00,VWS V14.01,2013-01-09 23:31:00,
2013-01-09 17:01:00,25.6,20.6,30.20,SSE,161,0.0,7.0,81,0.00,,---,0.00,VWS V14.01,2013-01-10 00:01:00,
2013-01-09 17:31:00,25.1,20.4,30.19,SE,126,2.0,8.0,82,0.00,,---,0.00,VWS V14.01,2013-01-10 00:31:00,
2013-01-09 18:01:00,24.7,20.0,30.17,ESE,121,1.0,9.0,82,0.00,,---,0.00,VWS V14.01,2013-01-10 01:01:00,
2013-01-09 18:31:00,25.0,20.3,30.16,SE,146,6.0,7.0,82,0.00,,---,0.00,VWS V14.01,2013-01-10 01:31:00,
2013-01-09 19:01:00,25.6,20.6,30.15,SE,125,3.0,8.0,81,0.00,,---,0.00,VWS V14.01,2013-01-10 02:01:00,
2013-01-09 19:31:00,25.4,20.4,30.13,SE,145,2.0,9.0,81,0.00,,---,0.00,VWS V14.01,2013-01-10 02:31:00,
2013-01-09 20:01:00,25.7,20.7,30.11,SSE,153,2.0,9.0,81,0.00,,---,0.00,VWS V14.01,2013-01-10 03:01:00,
2013-01-09 20:31:00,26.5,21.2,30.11,SE,140,2.0,11.0,80,0.00,,---,0.00,VWS V14.01,2013-01-10 03:31:00,
2013-01-09 21:01:00,26.3,21.3,30.10,SSE,150,4.0,9.0,81,0.00,,---,0.00,VWS V14.01,2013-01-10 04:01:00,
2013-01-09 21:31:00,26.5,21.5,30.09,South,183,2.0,9.0,81,0.00,,---,0.00,VWS V14.01,2013-01-10 04:31:00,
2013-01-09 22:01:00,26.9,22.1,30.09,SE,144,5.0,10.0,82,0.00,,---,0.00,VWS V14.01,2013-01-10 05:01:00,
2013-01-09 22:31:00,27.0,22.5,30.08,SE,137,4.0,11.0,83,0.00,,---,0.00,VWS V14.01,2013-01-10 05:31:00,
2013-01-09 23:01:00,27.6,23.1,30.07,SE,146,3.0,7.0,83,0.00,,---,0.00,VWS V14.01,2013-01-10 06:01:00,
2013-01-09 23:31:00,27.4,23.2,30.07,SSE,159,3.0,9.0,84,0.00,,---,0.00,VWS V14.01,2013-01-10 06:31:00,